sensor_id;sensor_type;location;lat;lon;timestamp;P1;durP1;ratioP1;P2;durP2;ratioP2
28828;SDS011;15966;51.540;11.870;2023-05-07T00:00:43;13.43;;;10.77;;
28828;SDS011;15966;51.540;11.870;2023-05-07T00:03:09;14.13;;;12.73;;
28828;SDS011;15966;51.540;11.870;2023-05-07T00:05:36;13.40;;;11.97;;
28828;SDS011;15966;51.540;11.870;2023-05-07T00:08:03;13.85;;;12.45;;
28828;SDS011;15966;51.540;11.870;2023-05-07T00:10:29;14.40;;;12.93;;
28828;SDS011;15966;51.540;11.870;2023-05-07T00:12:55;13.38;;;11.98;;
28828;SDS011;15966;51.540;11.870;2023-05-07T00:15:21;15.85;;;12.20;;
28828;SDS011;15966;51.540;11.870;2023-05-07T00:17:47;13.93;;;12.43;;
28828;SDS011;15966;51.540;11.870;2023-05-07T00:20:13;14.85;;;12.55;;
28828;SDS011;15966;51.540;11.870;2023-05-07T00:22:40;13.93;;;11.68;;
28828;SDS011;15966;51.540;11.870;2023-05-07T00:25:06;16.50;;;13.88;;
28828;SDS011;15966;51.540;11.870;2023-05-07T00:27:33;14.75;;;13.00;;
28828;SDS011;15966;51.540;11.870;2023-05-07T00:29:59;15.27;;;12.68;;
28828;SDS011;15966;51.540;11.870;2023-05-07T00:32:25;16.88;;;12.65;;
28828;SDS011;15966;51.540;11.870;2023-05-07T00:34:51;13.98;;;11.63;;
28828;SDS011;15966;51.540;11.870;2023-05-07T00:37:17;13.20;;;11.85;;
28828;SDS011;15966;51.540;11.870;2023-05-07T00:39:43;15.60;;;12.57;;
28828;SDS011;15966;51.540;11.870;2023-05-07T00:42:09;13.48;;;12.07;;
28828;SDS011;15966;51.540;11.870;2023-05-07T00:44:35;13.48;;;10.82;;
28828;SDS011;15966;51.540;11.870;2023-05-07T00:47:02;16.35;;;12.18;;
28828;SDS011;15966;51.540;11.870;2023-05-07T00:49:34;16.83;;;12.75;;
28828;SDS011;15966;51.540;11.870;2023-05-07T00:52:03;11.93;;;10.60;;
28828;SDS011;15966;51.540;11.870;2023-05-07T00:54:30;15.27;;;12.65;;
28828;SDS011;15966;51.540;11.870;2023-05-07T00:56:56;13.48;;;11.35;;
28828;SDS011;15966;51.540;11.870;2023-05-07T00:59:23;13.20;;;11.77;;
28828;SDS011;15966;51.540;11.870;2023-05-07T01:01:49;12.52;;;10.38;;
28828;SDS011;15966;51.540;11.870;2023-05-07T01:04:15;14.02;;;12.65;;
28828;SDS011;15966;51.540;11.870;2023-05-07T01:06:41;14.90;;;11.65;;
28828;SDS011;15966;51.540;11.870;2023-05-07T01:09:07;12.85;;;11.32;;
28828;SDS011;15966;51.540;11.870;2023-05-07T01:11:34;12.43;;;11.23;;
28828;SDS011;15966;51.540;11.870;2023-05-07T01:14:00;12.48;;;10.75;;
28828;SDS011;15966;51.540;11.870;2023-05-07T01:16:26;15.27;;;10.90;;
28828;SDS011;15966;51.540;11.870;2023-05-07T01:18:52;11.02;;;9.93;;
28828;SDS011;15966;51.540;11.870;2023-05-07T01:21:18;13.48;;;10.60;;
28828;SDS011;15966;51.540;11.870;2023-05-07T01:23:51;15.13;;;11.10;;
28828;SDS011;15966;51.540;11.870;2023-05-07T01:26:18;11.73;;;10.57;;
28828;SDS011;15966;51.540;11.870;2023-05-07T01:28:45;14.15;;;12.55;;
28828;SDS011;15966;51.540;11.870;2023-05-07T01:31:11;14.80;;;13.00;;
28828;SDS011;15966;51.540;11.870;2023-05-07T01:33:38;15.38;;;13.85;;
28828;SDS011;15966;51.540;11.870;2023-05-07T01:36:06;15.07;;;13.23;;
28828;SDS011;15966;51.540;11.870;2023-05-07T01:38:33;14.57;;;12.63;;
28828;SDS011;15966;51.540;11.870;2023-05-07T01:41:00;15.30;;;13.77;;
28828;SDS011;15966;51.540;11.870;2023-05-07T01:43:27;15.85;;;14.07;;
28828;SDS011;15966;51.540;11.870;2023-05-07T01:45:55;18.13;;;14.73;;
28828;SDS011;15966;51.540;11.870;2023-05-07T01:48:21;15.27;;;13.63;;
28828;SDS011;15966;51.540;11.870;2023-05-07T01:50:48;18.25;;;13.93;;
28828;SDS011;15966;51.540;11.870;2023-05-07T01:53:14;13.73;;;12.30;;
28828;SDS011;15966;51.540;11.870;2023-05-07T01:55:40;13.23;;;11.38;;
28828;SDS011;15966;51.540;11.870;2023-05-07T01:58:06;15.70;;;13.80;;
28828;SDS011;15966;51.540;11.870;2023-05-07T02:00:32;13.70;;;11.90;;
28828;SDS011;15966;51.540;11.870;2023-05-07T02:02:59;15.77;;;14.10;;
28828;SDS011;15966;51.540;11.870;2023-05-07T02:05:25;12.40;;;11.20;;
28828;SDS011;15966;51.540;11.870;2023-05-07T02:07:51;13.95;;;11.45;;
28828;SDS011;15966;51.540;11.870;2023-05-07T02:10:17;13.13;;;9.75;;
28828;SDS011;15966;51.540;11.870;2023-05-07T02:12:43;12.77;;;11.48;;
28828;SDS011;15966;51.540;11.870;2023-05-07T02:15:09;12.23;;;11.00;;
28828;SDS011;15966;51.540;11.870;2023-05-07T02:17:38;17.15;;;12.00;;
28828;SDS011;15966;51.540;11.870;2023-05-07T02:20:23;12.35;;;11.05;;
28828;SDS011;15966;51.540;11.870;2023-05-07T02:22:49;10.75;;;9.75;;
28828;SDS011;15966;51.540;11.870;2023-05-07T02:25:15;12.52;;;10.98;;
28828;SDS011;15966;51.540;11.870;2023-05-07T02:27:41;11.73;;;9.85;;
28828;SDS011;15966;51.540;11.870;2023-05-07T02:30:07;12.25;;;11.10;;
28828;SDS011;15966;51.540;11.870;2023-05-07T02:32:34;11.82;;;10.73;;
28828;SDS011;15966;51.540;11.870;2023-05-07T02:35:00;12.02;;;10.73;;
28828;SDS011;15966;51.540;11.870;2023-05-07T02:37:26;10.48;;;9.48;;
28828;SDS011;15966;51.540;11.870;2023-05-07T02:39:52;9.55;;;8.65;;
28828;SDS011;15966;51.540;11.870;2023-05-07T02:42:18;13.25;;;9.70;;
28828;SDS011;15966;51.540;11.870;2023-05-07T02:44:44;10.07;;;9.07;;
28828;SDS011;15966;51.540;11.870;2023-05-07T02:47:10;10.27;;;9.27;;
28828;SDS011;15966;51.540;11.870;2023-05-07T02:49:38;9.20;;;8.30;;
28828;SDS011;15966;51.540;11.870;2023-05-07T02:52:04;9.68;;;8.68;;
28828;SDS011;15966;51.540;11.870;2023-05-07T02:54:30;11.90;;;9.13;;
28828;SDS011;15966;51.540;11.870;2023-05-07T02:56:56;9.75;;;8.75;;
28828;SDS011;15966;51.540;11.870;2023-05-07T02:59:23;9.77;;;8.77;;
28828;SDS011;15966;51.540;11.870;2023-05-07T03:01:51;8.07;;;7.28;;
28828;SDS011;15966;51.540;11.870;2023-05-07T03:04:17;10.00;;;8.77;;
28828;SDS011;15966;51.540;11.870;2023-05-07T03:06:43;10.30;;;9.15;;
28828;SDS011;15966;51.540;11.870;2023-05-07T03:09:09;9.27;;;8.38;;
28828;SDS011;15966;51.540;11.870;2023-05-07T03:11:35;9.18;;;8.38;;
28828;SDS011;15966;51.540;11.870;2023-05-07T03:14:01;9.52;;;8.65;;
28828;SDS011;15966;51.540;11.870;2023-05-07T03:16:27;9.07;;;8.18;;
28828;SDS011;15966;51.540;11.870;2023-05-07T03:18:54;8.18;;;7.35;;
28828;SDS011;15966;51.540;11.870;2023-05-07T03:21:20;10.90;;;9.40;;
28828;SDS011;15966;51.540;11.870;2023-05-07T03:23:46;9.85;;;8.85;;
28828;SDS011;15966;51.540;11.870;2023-05-07T03:26:12;9.35;;;7.57;;
28828;SDS011;15966;51.540;11.870;2023-05-07T03:28:38;9.93;;;8.93;;
28828;SDS011;15966;51.540;11.870;2023-05-07T03:31:04;10.98;;;9.77;;
28828;SDS011;15966;51.540;11.870;2023-05-07T03:33:32;10.52;;;9.52;;
28828;SDS011;15966;51.540;11.870;2023-05-07T03:35:59;9.45;;;8.60;;
28828;SDS011;15966;51.540;11.870;2023-05-07T03:38:26;10.10;;;8.57;;
28828;SDS011;15966;51.540;11.870;2023-05-07T03:40:52;11.38;;;10.32;;
28828;SDS011;15966;51.540;11.870;2023-05-07T03:43:18;12.75;;;10.85;;
28828;SDS011;15966;51.540;11.870;2023-05-07T03:45:44;11.02;;;9.75;;
28828;SDS011;15966;51.540;11.870;2023-05-07T03:48:10;11.73;;;10.65;;
28828;SDS011;15966;51.540;11.870;2023-05-07T03:50:37;12.32;;;10.20;;
28828;SDS011;15966;51.540;11.870;2023-05-07T03:53:03;13.05;;;11.20;;
28828;SDS011;15966;51.540;11.870;2023-05-07T03:55:29;13.63;;;11.95;;
28828;SDS011;15966;51.540;11.870;2023-05-07T03:57:55;13.65;;;12.32;;
28828;SDS011;15966;51.540;11.870;2023-05-07T04:00:21;13.00;;;11.80;;
28828;SDS011;15966;51.540;11.870;2023-05-07T04:02:47;13.05;;;11.75;;
28828;SDS011;15966;51.540;11.870;2023-05-07T04:05:13;13.25;;;11.93;;
28828;SDS011;15966;51.540;11.870;2023-05-07T04:07:40;13.75;;;12.45;;
28828;SDS011;15966;51.540;11.870;2023-05-07T04:10:06;13.13;;;11.68;;
28828;SDS011;15966;51.540;11.870;2023-05-07T04:12:33;14.25;;;12.20;;
28828;SDS011;15966;51.540;11.870;2023-05-07T04:14:59;12.18;;;11.00;;
28828;SDS011;15966;51.540;11.870;2023-05-07T04:17:25;12.98;;;11.65;;
28828;SDS011;15966;51.540;11.870;2023-05-07T04:19:51;12.90;;;11.70;;
28828;SDS011;15966;51.540;11.870;2023-05-07T04:22:17;12.38;;;11.18;;
28828;SDS011;15966;51.540;11.870;2023-05-07T04:24:43;12.70;;;10.65;;
28828;SDS011;15966;51.540;11.870;2023-05-07T04:27:09;11.80;;;10.43;;
28828;SDS011;15966;51.540;11.870;2023-05-07T04:29:35;11.70;;;10.60;;
28828;SDS011;15966;51.540;11.870;2023-05-07T04:32:01;13.07;;;11.68;;
28828;SDS011;15966;51.540;11.870;2023-05-07T04:34:28;12.15;;;10.93;;
28828;SDS011;15966;51.540;11.870;2023-05-07T04:36:54;12.52;;;11.23;;
28828;SDS011;15966;51.540;11.870;2023-05-07T04:39:23;12.15;;;10.93;;
28828;SDS011;15966;51.540;11.870;2023-05-07T04:41:49;13.68;;;12.30;;
28828;SDS011;15966;51.540;11.870;2023-05-07T04:44:15;12.77;;;11.55;;
28828;SDS011;15966;51.540;11.870;2023-05-07T04:46:41;13.63;;;11.48;;
28828;SDS011;15966;51.540;11.870;2023-05-07T04:49:08;14.13;;;12.63;;
28828;SDS011;15966;51.540;11.870;2023-05-07T04:51:34;14.93;;;13.00;;
28828;SDS011;15966;51.540;11.870;2023-05-07T04:54:00;13.88;;;12.48;;
28828;SDS011;15966;51.540;11.870;2023-05-07T04:56:27;14.52;;;12.95;;
28828;SDS011;15966;51.540;11.870;2023-05-07T04:58:54;16.25;;;12.88;;
28828;SDS011;15966;51.540;11.870;2023-05-07T05:01:20;14.40;;;12.90;;
28828;SDS011;15966;51.540;11.870;2023-05-07T05:03:46;14.52;;;13.10;;
28828;SDS011;15966;51.540;11.870;2023-05-07T05:06:13;15.30;;;13.48;;
28828;SDS011;15966;51.540;11.870;2023-05-07T05:08:39;14.13;;;12.63;;
28828;SDS011;15966;51.540;11.870;2023-05-07T05:11:05;14.65;;;12.48;;
28828;SDS011;15966;51.540;11.870;2023-05-07T05:13:31;14.95;;;13.38;;
28828;SDS011;15966;51.540;11.870;2023-05-07T05:15:57;17.13;;;13.10;;
28828;SDS011;15966;51.540;11.870;2023-05-07T05:18:23;13.20;;;11.73;;
28828;SDS011;15966;51.540;11.870;2023-05-07T05:20:49;15.40;;;13.80;;
28828;SDS011;15966;51.540;11.870;2023-05-07T05:23:16;14.32;;;12.23;;
28828;SDS011;15966;51.540;11.870;2023-05-07T05:25:43;15.45;;;13.05;;
28828;SDS011;15966;51.540;11.870;2023-05-07T05:28:09;13.55;;;12.18;;
28828;SDS011;15966;51.540;11.870;2023-05-07T05:30:35;14.43;;;11.77;;
28828;SDS011;15966;51.540;11.870;2023-05-07T05:33:01;13.55;;;11.77;;
28828;SDS011;15966;51.540;11.870;2023-05-07T05:35:27;14.73;;;13.32;;
28828;SDS011;15966;51.540;11.870;2023-05-07T05:37:54;12.68;;;11.38;;
28828;SDS011;15966;51.540;11.870;2023-05-07T05:40:20;14.13;;;11.88;;
28828;SDS011;15966;51.540;11.870;2023-05-07T05:42:46;15.15;;;11.35;;
28828;SDS011;15966;51.540;11.870;2023-05-07T05:45:13;12.63;;;11.25;;
28828;SDS011;15966;51.540;11.870;2023-05-07T05:47:40;12.35;;;11.15;;
28828;SDS011;15966;51.540;11.870;2023-05-07T05:50:06;14.30;;;11.10;;
28828;SDS011;15966;51.540;11.870;2023-05-07T05:52:33;13.48;;;11.00;;
28828;SDS011;15966;51.540;11.870;2023-05-07T05:54:59;11.80;;;10.38;;
28828;SDS011;15966;51.540;11.870;2023-05-07T05:57:25;13.70;;;12.30;;
28828;SDS011;15966;51.540;11.870;2023-05-07T05:59:51;11.93;;;10.60;;
28828;SDS011;15966;51.540;11.870;2023-05-07T06:02:17;11.23;;;10.10;;
28828;SDS011;15966;51.540;11.870;2023-05-07T06:04:43;14.93;;;11.20;;
28828;SDS011;15966;51.540;11.870;2023-05-07T06:07:10;11.43;;;10.32;;
28828;SDS011;15966;51.540;11.870;2023-05-07T06:09:36;11.90;;;10.70;;
28828;SDS011;15966;51.540;11.870;2023-05-07T06:12:02;13.68;;;11.18;;
28828;SDS011;15966;51.540;11.870;2023-05-07T06:14:28;11.02;;;9.90;;
28828;SDS011;15966;51.540;11.870;2023-05-07T06:16:54;13.23;;;10.82;;
28828;SDS011;15966;51.540;11.870;2023-05-07T06:19:20;10.27;;;8.77;;
28828;SDS011;15966;51.540;11.870;2023-05-07T06:21:48;13.20;;;10.73;;
28828;SDS011;15966;51.540;11.870;2023-05-07T06:24:15;12.70;;;8.98;;
28828;SDS011;15966;51.540;11.870;2023-05-07T06:26:41;10.05;;;9.05;;
28828;SDS011;15966;51.540;11.870;2023-05-07T06:29:07;9.40;;;8.45;;
28828;SDS011;15966;51.540;11.870;2023-05-07T06:31:33;12.15;;;9.80;;
28828;SDS011;15966;51.540;11.870;2023-05-07T06:33:59;10.50;;;8.98;;
28828;SDS011;15966;51.540;11.870;2023-05-07T06:36:27;11.25;;;9.55;;
28828;SDS011;15966;51.540;11.870;2023-05-07T06:38:53;9.32;;;8.50;;
28828;SDS011;15966;51.540;11.870;2023-05-07T06:41:20;9.50;;;8.50;;
28828;SDS011;15966;51.540;11.870;2023-05-07T06:43:46;10.52;;;9.43;;
28828;SDS011;15966;51.540;11.870;2023-05-07T06:46:12;10.15;;;7.97;;
28828;SDS011;15966;51.540;11.870;2023-05-07T06:48:38;11.18;;;7.93;;
28828;SDS011;15966;51.540;11.870;2023-05-07T06:51:05;7.80;;;7.10;;
28828;SDS011;15966;51.540;11.870;2023-05-07T06:53:31;7.70;;;6.90;;
28828;SDS011;15966;51.540;11.870;2023-05-07T06:55:57;7.68;;;6.88;;
28828;SDS011;15966;51.540;11.870;2023-05-07T06:58:23;6.32;;;5.63;;
28828;SDS011;15966;51.540;11.870;2023-05-07T07:00:49;7.70;;;6.40;;
28828;SDS011;15966;51.540;11.870;2023-05-07T07:03:15;7.38;;;6.45;;
28828;SDS011;15966;51.540;11.870;2023-05-07T07:05:41;7.53;;;5.75;;
28828;SDS011;15966;51.540;11.870;2023-05-07T07:08:07;8.57;;;5.90;;
28828;SDS011;15966;51.540;11.870;2023-05-07T07:10:34;6.18;;;5.57;;
28828;SDS011;15966;51.540;11.870;2023-05-07T07:13:00;6.75;;;6.07;;
28828;SDS011;15966;51.540;11.870;2023-05-07T07:15:26;7.18;;;6.43;;
28828;SDS011;15966;51.540;11.870;2023-05-07T07:17:52;8.02;;;6.88;;
28828;SDS011;15966;51.540;11.870;2023-05-07T07:20:18;6.65;;;5.85;;
28828;SDS011;15966;51.540;11.870;2023-05-07T07:22:44;6.78;;;6.10;;
28828;SDS011;15966;51.540;11.870;2023-05-07T07:25:10;7.53;;;6.82;;
28828;SDS011;15966;51.540;11.870;2023-05-07T07:27:37;8.27;;;7.45;;
28828;SDS011;15966;51.540;11.870;2023-05-07T07:30:05;8.18;;;6.70;;
28828;SDS011;15966;51.540;11.870;2023-05-07T07:32:31;7.25;;;6.57;;
28828;SDS011;15966;51.540;11.870;2023-05-07T07:34:58;6.97;;;6.28;;
28828;SDS011;15966;51.540;11.870;2023-05-07T07:37:24;9.57;;;7.28;;
28828;SDS011;15966;51.540;11.870;2023-05-07T07:39:50;8.88;;;7.03;;
28828;SDS011;15966;51.540;11.870;2023-05-07T07:42:16;8.70;;;7.82;;
28828;SDS011;15966;51.540;11.870;2023-05-07T07:44:43;8.73;;;7.80;;
28828;SDS011;15966;51.540;11.870;2023-05-07T07:47:09;9.88;;;8.93;;
28828;SDS011;15966;51.540;11.870;2023-05-07T07:49:36;10.70;;;8.48;;
28828;SDS011;15966;51.540;11.870;2023-05-07T07:52:02;8.43;;;7.63;;
28828;SDS011;15966;51.540;11.870;2023-05-07T07:54:28;9.32;;;8.40;;
28828;SDS011;15966;51.540;11.870;2023-05-07T07:56:55;10.30;;;7.82;;
28828;SDS011;15966;51.540;11.870;2023-05-07T07:59:21;9.48;;;8.40;;
28828;SDS011;15966;51.540;11.870;2023-05-07T08:01:47;9.48;;;8.45;;
28828;SDS011;15966;51.540;11.870;2023-05-07T08:04:15;9.95;;;8.68;;
28828;SDS011;15966;51.540;11.870;2023-05-07T08:06:41;9.63;;;8.57;;
28828;SDS011;15966;51.540;11.870;2023-05-07T08:09:07;9.70;;;8.30;;
28828;SDS011;15966;51.540;11.870;2023-05-07T08:11:33;10.35;;;8.20;;
28828;SDS011;15966;51.540;11.870;2023-05-07T08:14:00;9.27;;;8.05;;
28828;SDS011;15966;51.540;11.870;2023-05-07T08:16:26;10.18;;;9.07;;
28828;SDS011;15966;51.540;11.870;2023-05-07T08:18:53;8.48;;;7.68;;
28828;SDS011;15966;51.540;11.870;2023-05-07T08:21:19;8.55;;;7.75;;
28828;SDS011;15966;51.540;11.870;2023-05-07T08:23:45;9.00;;;8.07;;
28828;SDS011;15966;51.540;11.870;2023-05-07T08:26:11;8.45;;;7.55;;
28828;SDS011;15966;51.540;11.870;2023-05-07T08:28:37;8.60;;;7.72;;
28828;SDS011;15966;51.540;11.870;2023-05-07T08:31:04;8.63;;;7.83;;
28828;SDS011;15966;51.540;11.870;2023-05-07T08:33:30;7.35;;;6.68;;
28828;SDS011;15966;51.540;11.870;2023-05-07T08:35:56;8.23;;;7.43;;
28828;SDS011;15966;51.540;11.870;2023-05-07T08:38:23;8.80;;;7.97;;
28828;SDS011;15966;51.540;11.870;2023-05-07T08:40:49;7.85;;;7.13;;
28828;SDS011;15966;51.540;11.870;2023-05-07T08:43:15;7.20;;;6.50;;
28828;SDS011;15966;51.540;11.870;2023-05-07T08:48:19;7.35;;;6.72;;
28828;SDS011;15966;51.540;11.870;2023-05-07T08:50:48;6.97;;;5.78;;
28828;SDS011;15966;51.540;11.870;2023-05-07T08:53:15;6.28;;;5.68;;
28828;SDS011;15966;51.540;11.870;2023-05-07T08:55:42;6.43;;;5.82;;
28828;SDS011;15966;51.540;11.870;2023-05-07T08:58:08;7.43;;;6.28;;
28828;SDS011;15966;51.540;11.870;2023-05-07T09:00:35;7.07;;;6.35;;
28828;SDS011;15966;51.540;11.870;2023-05-07T09:03:02;6.95;;;6.25;;
28828;SDS011;15966;51.540;11.870;2023-05-07T09:05:28;5.93;;;5.43;;
28828;SDS011;15966;51.540;11.870;2023-05-07T09:07:54;6.15;;;5.45;;
28828;SDS011;15966;51.540;11.870;2023-05-07T09:10:20;6.25;;;4.90;;
28828;SDS011;15966;51.540;11.870;2023-05-07T09:12:47;6.47;;;5.88;;
28828;SDS011;15966;51.540;11.870;2023-05-07T09:15:13;6.55;;;5.95;;
28828;SDS011;15966;51.540;11.870;2023-05-07T09:17:39;5.68;;;5.07;;
28828;SDS011;15966;51.540;11.870;2023-05-07T09:22:33;7.53;;;5.70;;
28828;SDS011;15966;51.540;11.870;2023-05-07T09:25:01;7.47;;;6.78;;
28828;SDS011;15966;51.540;11.870;2023-05-07T09:27:27;7.82;;;7.07;;
28828;SDS011;15966;51.540;11.870;2023-05-07T09:29:53;7.68;;;6.88;;
28828;SDS011;15966;51.540;11.870;2023-05-07T09:32:19;7.68;;;6.97;;
28828;SDS011;15966;51.540;11.870;2023-05-07T09:34:45;6.55;;;5.60;;
28828;SDS011;15966;51.540;11.870;2023-05-07T09:37:12;7.60;;;6.43;;
28828;SDS011;15966;51.540;11.870;2023-05-07T09:39:46;7.50;;;6.80;;
28828;SDS011;15966;51.540;11.870;2023-05-07T09:42:13;8.32;;;7.53;;
28828;SDS011;15966;51.540;11.870;2023-05-07T09:44:45;8.48;;;7.68;;
28828;SDS011;15966;51.540;11.870;2023-05-07T09:47:12;8.55;;;7.75;;
28828;SDS011;15966;51.540;11.870;2023-05-07T09:49:43;9.48;;;8.57;;
28828;SDS011;15966;51.540;11.870;2023-05-07T09:52:13;9.52;;;7.97;;
28828;SDS011;15966;51.540;11.870;2023-05-07T09:54:39;8.10;;;7.30;;
28828;SDS011;15966;51.540;11.870;2023-05-07T09:57:08;11.13;;;8.63;;
28828;SDS011;15966;51.540;11.870;2023-05-07T09:59:38;9.50;;;8.52;;
28828;SDS011;15966;51.540;11.870;2023-05-07T10:02:04;10.45;;;9.50;;
28828;SDS011;15966;51.540;11.870;2023-05-07T10:04:31;9.75;;;8.85;;
28828;SDS011;15966;51.540;11.870;2023-05-07T10:06:58;10.95;;;9.85;;
28828;SDS011;15966;51.540;11.870;2023-05-07T10:09:25;8.83;;;8.00;;
28828;SDS011;15966;51.540;11.870;2023-05-07T10:11:51;11.30;;;8.73;;
28828;SDS011;15966;51.540;11.870;2023-05-07T10:14:19;10.07;;;9.18;;
28828;SDS011;15966;51.540;11.870;2023-05-07T10:16:46;9.93;;;8.82;;
28828;SDS011;15966;51.540;11.870;2023-05-07T10:19:13;9.27;;;8.35;;
28828;SDS011;15966;51.540;11.870;2023-05-07T10:21:44;10.68;;;9.45;;
28828;SDS011;15966;51.540;11.870;2023-05-07T10:24:21;10.63;;;9.57;;
28828;SDS011;15966;51.540;11.870;2023-05-07T10:26:52;13.25;;;9.75;;
28828;SDS011;15966;51.540;11.870;2023-05-07T10:32:42;9.77;;;8.75;;
28828;SDS011;15966;51.540;11.870;2023-05-07T10:35:24;10.05;;;9.15;;
28828;SDS011;15966;51.540;11.870;2023-05-07T10:37:54;10.27;;;9.27;;
28828;SDS011;15966;51.540;11.870;2023-05-07T10:40:20;10.85;;;9.88;;
28828;SDS011;15966;51.540;11.870;2023-05-07T10:42:53;10.15;;;9.25;;
28828;SDS011;15966;51.540;11.870;2023-05-07T10:45:24;10.67;;;9.53;;
28828;SDS011;15966;51.540;11.870;2023-05-07T10:48:10;11.15;;;9.82;;
28828;SDS011;15966;51.540;11.870;2023-05-07T10:50:37;10.90;;;9.80;;
28828;SDS011;15966;51.540;11.870;2023-05-07T10:53:19;10.25;;;9.25;;
28828;SDS011;15966;51.540;11.870;2023-05-07T10:55:48;11.45;;;10.07;;
28828;SDS011;15966;51.540;11.870;2023-05-07T11:00:55;25.77;;;10.15;;
28828;SDS011;15966;51.540;11.870;2023-05-07T11:03:22;11.25;;;10.15;;
28828;SDS011;15966;51.540;11.870;2023-05-07T11:06:08;10.98;;;9.98;;
28828;SDS011;15966;51.540;11.870;2023-05-07T11:14:11;11.30;;;10.02;;
28828;SDS011;15966;51.540;11.870;2023-05-07T11:16:37;11.25;;;10.25;;
28828;SDS011;15966;51.540;11.870;2023-05-07T11:19:03;11.25;;;10.25;;
28828;SDS011;15966;51.540;11.870;2023-05-07T11:21:39;12.57;;;10.98;;
28828;SDS011;15966;51.540;11.870;2023-05-07T11:24:06;12.18;;;10.52;;
28828;SDS011;15966;51.540;11.870;2023-05-07T11:26:46;11.77;;;9.57;;
28828;SDS011;15966;51.540;11.870;2023-05-07T11:29:20;9.15;;;8.25;;
28828;SDS011;15966;51.540;11.870;2023-05-07T11:31:53;9.02;;;8.13;;
28828;SDS011;15966;51.540;11.870;2023-05-07T11:34:20;9.93;;;8.73;;
28828;SDS011;15966;51.540;11.870;2023-05-07T11:36:50;9.10;;;8.30;;
28828;SDS011;15966;51.540;11.870;2023-05-07T11:39:23;9.18;;;8.27;;
28828;SDS011;15966;51.540;11.870;2023-05-07T11:41:53;8.55;;;7.80;;
28828;SDS011;15966;51.540;11.870;2023-05-07T11:44:19;9.30;;;8.50;;
28828;SDS011;15966;51.540;11.870;2023-05-07T11:46:45;11.00;;;9.60;;
28828;SDS011;15966;51.540;11.870;2023-05-07T11:49:11;8.77;;;8.05;;
28828;SDS011;15966;51.540;11.870;2023-05-07T11:51:37;11.00;;;10.02;;
28828;SDS011;15966;51.540;11.870;2023-05-07T11:56:36;9.32;;;8.40;;
28828;SDS011;15966;51.540;11.870;2023-05-07T11:59:04;8.60;;;7.80;;
28828;SDS011;15966;51.540;11.870;2023-05-07T12:01:30;10.60;;;9.60;;
28828;SDS011;15966;51.540;11.870;2023-05-07T12:03:56;11.20;;;8.98;;
28828;SDS011;15966;51.540;11.870;2023-05-07T12:06:22;9.98;;;8.60;;
28828;SDS011;15966;51.540;11.870;2023-05-07T12:08:49;9.25;;;8.40;;
28828;SDS011;15966;51.540;11.870;2023-05-07T12:11:15;10.32;;;9.27;;
28828;SDS011;15966;51.540;11.870;2023-05-07T12:13:48;10.35;;;9.35;;
28828;SDS011;15966;51.540;11.870;2023-05-07T12:16:14;8.10;;;7.28;;
28828;SDS011;15966;51.540;11.870;2023-05-07T12:18:41;8.95;;;8.05;;
28828;SDS011;15966;51.540;11.870;2023-05-07T12:21:07;9.55;;;8.65;;
28828;SDS011;15966;51.540;11.870;2023-05-07T12:23:34;9.00;;;8.10;;
28828;SDS011;15966;51.540;11.870;2023-05-07T12:26:01;8.25;;;7.55;;
28828;SDS011;15966;51.540;11.870;2023-05-07T12:28:27;7.03;;;6.32;;
28828;SDS011;15966;51.540;11.870;2023-05-07T12:30:53;6.10;;;5.60;;
28828;SDS011;15966;51.540;11.870;2023-05-07T12:33:23;5.53;;;5.03;;
28828;SDS011;15966;51.540;11.870;2023-05-07T12:35:50;6.38;;;5.78;;
28828;SDS011;15966;51.540;11.870;2023-05-07T12:38:20;7.05;;;5.07;;
28828;SDS011;15966;51.540;11.870;2023-05-07T12:40:47;7.13;;;6.38;;
28828;SDS011;15966;51.540;11.870;2023-05-07T12:45:42;5.93;;;5.43;;
28828;SDS011;15966;51.540;11.870;2023-05-07T12:48:09;6.70;;;6.00;;
28828;SDS011;15966;51.540;11.870;2023-05-07T12:50:36;5.43;;;4.93;;
28828;SDS011;15966;51.540;11.870;2023-05-07T12:53:05;7.40;;;6.70;;
28828;SDS011;15966;51.540;11.870;2023-05-07T12:55:39;10.30;;;6.57;;
28828;SDS011;15966;51.540;11.870;2023-05-07T12:58:07;7.97;;;7.18;;
28828;SDS011;15966;51.540;11.870;2023-05-07T13:00:34;7.60;;;6.30;;
28828;SDS011;15966;51.540;11.870;2023-05-07T13:05:27;7.30;;;6.57;;
28828;SDS011;15966;51.540;11.870;2023-05-07T13:07:53;7.65;;;6.85;;
28828;SDS011;15966;51.540;11.870;2023-05-07T13:10:21;7.75;;;7.15;;
28828;SDS011;15966;51.540;11.870;2023-05-07T13:12:48;8.48;;;7.45;;
28828;SDS011;15966;51.540;11.870;2023-05-07T13:15:14;8.13;;;6.50;;
28828;SDS011;15966;51.540;11.870;2023-05-07T13:17:40;7.93;;;7.13;;
28828;SDS011;15966;51.540;11.870;2023-05-07T13:20:08;7.32;;;6.72;;
28828;SDS011;15966;51.540;11.870;2023-05-07T13:22:35;7.65;;;6.95;;
28828;SDS011;15966;51.540;11.870;2023-05-07T13:25:01;6.97;;;6.38;;
28828;SDS011;15966;51.540;11.870;2023-05-07T13:27:28;8.52;;;7.78;;
28828;SDS011;15966;51.540;11.870;2023-05-07T13:32:22;7.43;;;6.80;;
28828;SDS011;15966;51.540;11.870;2023-05-07T13:34:48;7.53;;;6.80;;
28828;SDS011;15966;51.540;11.870;2023-05-07T13:37:14;6.05;;;5.50;;
28828;SDS011;15966;51.540;11.870;2023-05-07T13:39:40;6.43;;;5.82;;
28828;SDS011;15966;51.540;11.870;2023-05-07T13:42:06;6.05;;;5.45;;
28828;SDS011;15966;51.540;11.870;2023-05-07T13:44:32;5.28;;;4.70;;
28828;SDS011;15966;51.540;11.870;2023-05-07T13:46:58;6.80;;;6.20;;
28828;SDS011;15966;51.540;11.870;2023-05-07T13:49:25;8.80;;;5.13;;
28828;SDS011;15966;51.540;11.870;2023-05-07T13:51:51;5.43;;;4.97;;
28828;SDS011;15966;51.540;11.870;2023-05-07T13:54:17;5.07;;;4.57;;
28828;SDS011;15966;51.540;11.870;2023-05-07T13:56:43;5.18;;;4.68;;
28828;SDS011;15966;51.540;11.870;2023-05-07T13:59:09;5.70;;;4.57;;
28828;SDS011;15966;51.540;11.870;2023-05-07T14:01:35;4.70;;;3.90;;
28828;SDS011;15966;51.540;11.870;2023-05-07T14:04:02;5.22;;;4.72;;
28828;SDS011;15966;51.540;11.870;2023-05-07T14:06:28;5.95;;;5.35;;
28828;SDS011;15966;51.540;11.870;2023-05-07T14:08:54;6.13;;;4.93;;
28828;SDS011;15966;51.540;11.870;2023-05-07T14:11:22;4.78;;;4.38;;
28828;SDS011;15966;51.540;11.870;2023-05-07T14:13:48;4.15;;;3.80;;
28828;SDS011;15966;51.540;11.870;2023-05-07T14:16:15;4.07;;;3.67;;
28828;SDS011;15966;51.540;11.870;2023-05-07T14:18:41;5.43;;;4.25;;
28828;SDS011;15966;51.540;11.870;2023-05-07T14:21:07;5.05;;;4.55;;
28828;SDS011;15966;51.540;11.870;2023-05-07T14:23:34;4.65;;;4.13;;
28828;SDS011;15966;51.540;11.870;2023-05-07T14:26:00;5.40;;;4.55;;
28828;SDS011;15966;51.540;11.870;2023-05-07T14:28:27;4.80;;;4.40;;
28828;SDS011;15966;51.540;11.870;2023-05-07T14:30:53;5.72;;;4.95;;
28828;SDS011;15966;51.540;11.870;2023-05-07T14:33:19;5.20;;;4.70;;
28828;SDS011;15966;51.540;11.870;2023-05-07T14:35:45;5.72;;;5.13;;
28828;SDS011;15966;51.540;11.870;2023-05-07T14:38:13;5.00;;;4.50;;
28828;SDS011;15966;51.540;11.870;2023-05-07T14:40:40;6.10;;;4.32;;
28828;SDS011;15966;51.540;11.870;2023-05-07T14:43:06;5.97;;;5.00;;
28828;SDS011;15966;51.540;11.870;2023-05-07T14:45:32;4.07;;;3.72;;
28828;SDS011;15966;51.540;11.870;2023-05-07T14:47:58;5.07;;;4.40;;